sensor_id;sensor_type;location;lat;lon;timestamp;pressure;altitude;pressure_sealevel;temperature;humidity
10079;BME280;5078;42.544;22.966;2023-04-08T00:00:01;93920.28;;;5.25;100.00
10079;BME280;5078;42.544;22.966;2023-04-08T00:02:30;93926.25;;;4.97;100.00
10079;BME280;5078;42.544;22.966;2023-04-08T00:04:57;93930.41;;;4.90;100.00
10079;BME280;5078;42.544;22.966;2023-04-08T00:07:24;93927.38;;;4.75;100.00
10079;BME280;5078;42.544;22.966;2023-04-08T00:09:51;93935.25;;;4.46;100.00
10079;BME280;5078;42.544;22.966;2023-04-08T00:12:19;93932.47;;;4.38;100.00
10079;BME280;5078;42.544;22.966;2023-04-08T00:14:45;93930.56;;;4.60;100.00
10079;BME280;5078;42.544;22.966;2023-04-08T00:17:12;93935.97;;;4.68;100.00
10079;BME280;5078;42.544;22.966;2023-04-08T00:19:39;93929.72;;;4.59;100.00
10079;BME280;5078;42.544;22.966;2023-04-08T00:22:06;93929.16;;;4.46;100.00
10079;BME280;5078;42.544;22.966;2023-04-08T00:24:32;93926.97;;;4.61;100.00
10079;BME280;5078;42.544;22.966;2023-04-08T00:26:59;93934.84;;;4.51;100.00
10079;BME280;5078;42.544;22.966;2023-04-08T00:29:28;93935.13;;;4.67;100.00
10079;BME280;5078;42.544;22.966;2023-04-08T00:31:55;93928.78;;;4.80;100.00
10079;BME280;5078;42.544;22.966;2023-04-08T00:34:21;93926.69;;;4.64;100.00
10079;BME280;5078;42.544;22.966;2023-04-08T00:36:48;93928.91;;;4.78;100.00
10079;BME280;5078;42.544;22.966;2023-04-08T00:39:15;93925.16;;;4.90;100.00
10079;BME280;5078;42.544;22.966;2023-04-08T00:41:42;93926.28;;;4.88;100.00
10079;BME280;5078;42.544;22.966;2023-04-08T00:44:08;93919.78;;;4.92;100.00
10079;BME280;5078;42.544;22.966;2023-04-08T00:46:38;93923.09;;;4.84;100.00
10079;BME280;5078;42.544;22.966;2023-04-08T00:49:05;93921.00;;;4.97;100.00
10079;BME280;5078;42.544;22.966;2023-04-08T00:51:32;93922.81;;;4.97;100.00
10079;BME280;5078;42.544;22.966;2023-04-08T00:54:00;93923.22;;;4.53;100.00
10079;BME280;5078;42.544;22.966;2023-04-08T00:56:29;93919.50;;;4.85;100.00
10079;BME280;5078;42.544;22.966;2023-04-08T00:58:57;93917.69;;;4.57;100.00
10079;BME280;5078;42.544;22.966;2023-04-08T01:01:29;93932.38;;;4.49;100.00
10079;BME280;5078;42.544;22.966;2023-04-08T01:04:04;93906.91;;;4.21;100.00
10079;BME280;5078;42.544;22.966;2023-04-08T01:06:38;93944.53;;;4.70;100.00
10079;BME280;5078;42.544;22.966;2023-04-08T01:09:09;93940.91;;;4.71;100.00
10079;BME280;5078;42.544;22.966;2023-04-08T01:11:41;93940.63;;;4.74;100.00
10079;BME280;5078;42.544;22.966;2023-04-08T01:14:11;93942.16;;;4.86;100.00
10079;BME280;5078;42.544;22.966;2023-04-08T01:16:42;93944.13;;;4.84;100.00
10079;BME280;5078;42.544;22.966;2023-04-08T01:19:18;93936.06;;;4.95;100.00
10079;BME280;5078;42.544;22.966;2023-04-08T01:21:48;93943.44;;;4.82;100.00
10079;BME280;5078;42.544;22.966;2023-04-08T01:24:19;93943.97;;;4.86;100.00
10079;BME280;5078;42.544;22.966;2023-04-08T01:26:50;93943.84;;;4.78;100.00
10079;BME280;5078;42.544;22.966;2023-04-08T01:29:18;93951.72;;;4.78;100.00
10079;BME280;5078;42.544;22.966;2023-04-08T01:31:45;93945.91;;;4.74;100.00
10079;BME280;5078;42.544;22.966;2023-04-08T01:34:13;93944.91;;;4.46;100.00
10079;BME280;5078;42.544;22.966;2023-04-08T01:36:43;93946.84;;;4.53;100.00
10079;BME280;5078;42.544;22.966;2023-04-08T01:39:10;93948.53;;;4.54;100.00
10079;BME280;5078;42.544;22.966;2023-04-08T01:41:38;93961.69;;;4.64;100.00
10079;BME280;5078;42.544;22.966;2023-04-08T01:44:07;93954.88;;;4.71;100.00
10079;BME280;5078;42.544;22.966;2023-04-08T01:46:34;93956.56;;;4.63;100.00
10079;BME280;5078;42.544;22.966;2023-04-08T01:49:03;93962.09;;;4.69;100.00
10079;BME280;5078;42.544;22.966;2023-04-08T01:51:32;93964.13;;;4.56;100.00
10079;BME280;5078;42.544;22.966;2023-04-08T01:53:59;93969.09;;;4.59;100.00
10079;BME280;5078;42.544;22.966;2023-04-08T01:56:28;93972.44;;;4.61;100.00
10079;BME280;5078;42.544;22.966;2023-04-08T01:58:57;93966.94;;;4.64;100.00
10079;BME280;5078;42.544;22.966;2023-04-08T02:01:28;93966.66;;;4.77;100.00
10079;BME280;5078;42.544;22.966;2023-04-08T02:03:56;93972.44;;;5.00;100.00
10079;BME280;5078;42.544;22.966;2023-04-08T02:06:25;93955.16;;;4.59;100.00
10079;BME280;5078;42.544;22.966;2023-04-08T02:08:53;93980.19;;;4.82;100.00
10079;BME280;5078;42.544;22.966;2023-04-08T02:11:20;93973.69;;;4.76;100.00
10079;BME280;5078;42.544;22.966;2023-04-08T02:13:47;93975.88;;;4.71;100.00
10079;BME280;5078;42.544;22.966;2023-04-08T02:16:18;93968.56;;;4.75;100.00
10079;BME280;5078;42.544;22.966;2023-04-08T02:18:57;93968.00;;;4.81;100.00
10079;BME280;5078;42.544;22.966;2023-04-08T02:21:33;93970.22;;;4.76;100.00
10079;BME280;5078;42.544;22.966;2023-04-08T02:24:04;93965.81;;;4.86;100.00
10079;BME280;5078;42.544;22.966;2023-04-08T02:26:34;93972.72;;;4.97;100.00
10079;BME280;5078;42.544;22.966;2023-04-08T02:29:03;93960.81;;;5.12;100.00
10079;BME280;5078;42.544;22.966;2023-04-08T02:31:31;93964.69;;;5.08;100.00
10079;BME280;5078;42.544;22.966;2023-04-08T02:34:00;93959.44;;;4.98;100.00
10079;BME280;5078;42.544;22.966;2023-04-08T02:36:28;93960.94;;;5.11;100.00
10079;BME280;5078;42.544;22.966;2023-04-08T02:38:57;93962.63;;;5.12;100.00
10079;BME280;5078;42.544;22.966;2023-04-08T02:41:27;93945.59;;;5.06;100.00
10079;BME280;5078;42.544;22.966;2023-04-08T02:43:54;93966.22;;;4.91;100.00
10079;BME280;5078;42.544;22.966;2023-04-08T02:46:20;93963.03;;;5.07;100.00
10079;BME280;5078;42.544;22.966;2023-04-08T02:48:47;93967.19;;;5.10;100.00
10079;BME280;5078;42.544;22.966;2023-04-08T02:51:15;93960.09;;;5.30;100.00
10079;BME280;5078;42.544;22.966;2023-04-08T02:53:42;93955.00;;;5.18;100.00
10079;BME280;5078;42.544;22.966;2023-04-08T02:56:09;93965.66;;;4.97;100.00
10079;BME280;5078;42.544;22.966;2023-04-08T02:58:36;93947.13;;;4.99;100.00
10079;BME280;5078;42.544;22.966;2023-04-08T03:01:03;93953.34;;;4.79;100.00
10079;BME280;5078;42.544;22.966;2023-04-08T03:03:29;93968.00;;;4.91;100.00
10079;BME280;5078;42.544;22.966;2023-04-08T03:05:56;93959.72;;;4.95;100.00
10079;BME280;5078;42.544;22.966;2023-04-08T03:08:24;93965.53;;;4.89;100.00
10079;BME280;5078;42.544;22.966;2023-04-08T03:10:51;93968.59;;;4.94;100.00
10079;BME280;5078;42.544;22.966;2023-04-08T03:13:18;93962.47;;;4.94;100.00
10079;BME280;5078;42.544;22.966;2023-04-08T03:15:45;93967.06;;;4.82;100.00
10079;BME280;5078;42.544;22.966;2023-04-08T03:18:12;93968.44;;;4.86;100.00
10079;BME280;5078;42.544;22.966;2023-04-08T03:20:38;93961.38;;;4.96;100.00
10079;BME280;5078;42.544;22.966;2023-04-08T03:23:05;93954.47;;;4.86;100.00
10079;BME280;5078;42.544;22.966;2023-04-08T03:25:34;93961.63;;;4.35;100.00
10079;BME280;5078;42.544;22.966;2023-04-08T03:28:00;93960.25;;;4.50;100.00
10079;BME280;5078;42.544;22.966;2023-04-08T03:30:27;93960.53;;;4.47;100.00
10079;BME280;5078;42.544;22.966;2023-04-08T03:32:54;93952.09;;;4.34;100.00
10079;BME280;5078;42.544;22.966;2023-04-08T03:35:20;93959.28;;;4.51;100.00
10079;BME280;5078;42.544;22.966;2023-04-08T03:37:47;93966.97;;;4.24;100.00
10079;BME280;5078;42.544;22.966;2023-04-08T03:40:14;93967.28;;;4.30;100.00
10079;BME280;5078;42.544;22.966;2023-04-08T03:42:42;93964.88;;;4.08;100.00
10079;BME280;5078;42.544;22.966;2023-04-08T03:45:09;93971.81;;;4.19;100.00
10079;BME280;5078;42.544;22.966;2023-04-08T03:47:36;93976.41;;;4.36;100.00
10079;BME280;5078;42.544;22.966;2023-04-08T03:50:03;93973.25;;;4.42;100.00
10079;BME280;5078;42.544;22.966;2023-04-08T03:52:29;93971.97;;;4.17;100.00
10079;BME280;5078;42.544;22.966;2023-04-08T03:54:56;93980.81;;;4.36;100.00
10079;BME280;5078;42.544;22.966;2023-04-08T03:57:23;93975.25;;;4.19;100.00
10079;BME280;5078;42.544;22.966;2023-04-08T03:59:51;93976.81;;;4.31;100.00
10079;BME280;5078;42.544;22.966;2023-04-08T04:02:17;93975.88;;;4.42;100.00
10079;BME280;5078;42.544;22.966;2023-04-08T04:04:44;93973.34;;;4.31;100.00
10079;BME280;5078;42.544;22.966;2023-04-08T04:07:11;93974.72;;;4.25;100.00
10079;BME280;5078;42.544;22.966;2023-04-08T04:09:38;93980.09;;;4.24;100.00
10079;BME280;5078;42.544;22.966;2023-04-08T04:12:04;93977.09;;;4.38;100.00
10079;BME280;5078;42.544;22.966;2023-04-08T04:14:31;93975.69;;;4.34;100.00
10079;BME280;5078;42.544;22.966;2023-04-08T04:16:59;93974.91;;;4.53;100.00
10079;BME280;5078;42.544;22.966;2023-04-08T04:19:28;93980.56;;;4.48;100.00
10079;BME280;5078;42.544;22.966;2023-04-08T04:21:55;93976.16;;;4.49;100.00
10079;BME280;5078;42.544;22.966;2023-04-08T04:24:22;93977.13;;;4.48;100.00
10079;BME280;5078;42.544;22.966;2023-04-08T04:26:49;93976.56;;;4.44;100.00
10079;BME280;5078;42.544;22.966;2023-04-08T04:29:15;93945.88;;;4.25;100.00
10079;BME280;5078;42.544;22.966;2023-04-08T04:31:42;93971.31;;;4.35;100.00
10079;BME280;5078;42.544;22.966;2023-04-08T04:34:10;93981.53;;;4.38;100.00
10079;BME280;5078;42.544;22.966;2023-04-08T04:36:37;93980.09;;;4.24;100.00
10079;BME280;5078;42.544;22.966;2023-04-08T04:39:03;93975.84;;;4.32;100.00
10079;BME280;5078;42.544;22.966;2023-04-08T04:41:30;93980.03;;;4.45;100.00
10079;BME280;5078;42.544;22.966;2023-04-08T04:43:57;93964.66;;;4.30;100.00
10079;BME280;5078;42.544;22.966;2023-04-08T04:46:23;93973.94;;;4.54;100.00
10079;BME280;5078;42.544;22.966;2023-04-08T04:48:50;93976.56;;;4.54;100.00
10079;BME280;5078;42.544;22.966;2023-04-08T04:51:18;93973.25;;;4.71;100.00
10079;BME280;5078;42.544;22.966;2023-04-08T04:53:45;93977.00;;;4.69;100.00
10079;BME280;5078;42.544;22.966;2023-04-08T04:56:13;93982.00;;;4.72;100.00
10079;BME280;5078;42.544;22.966;2023-04-08T04:58:40;93987.38;;;5.00;100.00
10079;BME280;5078;42.544;22.966;2023-04-08T05:01:07;93987.66;;;4.87;100.00
10079;BME280;5078;42.544;22.966;2023-04-08T05:03:33;93989.84;;;5.01;100.00
10079;BME280;5078;42.544;22.966;2023-04-08T05:06:00;93987.94;;;5.03;100.00
10079;BME280;5078;42.544;22.966;2023-04-08T05:08:28;93986.69;;;4.88;100.00
10079;BME280;5078;42.544;22.966;2023-04-08T05:10:55;93985.03;;;4.87;100.00
10079;BME280;5078;42.544;22.966;2023-04-08T05:13:23;93984.59;;;4.82;100.00
10079;BME280;5078;42.544;22.966;2023-04-08T05:15:50;93982.66;;;5.03;100.00
10079;BME280;5078;42.544;22.966;2023-04-08T05:18:17;93986.56;;;4.80;100.00
10079;BME280;5078;42.544;22.966;2023-04-08T05:20:44;93989.88;;;4.72;100.00
10079;BME280;5078;42.544;22.966;2023-04-08T05:23:11;93987.94;;;4.93;100.00
10079;BME280;5078;42.544;22.966;2023-04-08T05:25:39;93989.03;;;4.81;100.00
10079;BME280;5078;42.544;22.966;2023-04-08T05:28:05;93999.41;;;4.83;100.00
10079;BME280;5078;42.544;22.966;2023-04-08T05:30:32;93987.94;;;4.93;100.00
10079;BME280;5078;42.544;22.966;2023-04-08T05:32:59;93995.81;;;4.93;100.00
10079;BME280;5078;42.544;22.966;2023-04-08T05:35:26;93987.63;;;4.96;100.00
10079;BME280;5078;42.544;22.966;2023-04-08T05:37:52;93988.34;;;4.79;100.00
10079;BME280;5078;42.544;22.966;2023-04-08T05:40:19;93989.84;;;5.21;100.00
10079;BME280;5078;42.544;22.966;2023-04-08T05:42:47;93985.47;;;5.58;100.00
10079;BME280;5078;42.544;22.966;2023-04-08T05:45:14;93989.44;;;5.82;100.00
10079;BME280;5078;42.544;22.966;2023-04-08T05:47:41;93988.31;;;5.94;94.70
10079;BME280;5078;42.544;22.966;2023-04-08T05:50:09;93990.97;;;6.22;93.28
10079;BME280;5078;42.544;22.966;2023-04-08T05:52:36;93993.00;;;6.28;90.05
10079;BME280;5078;42.544;22.966;2023-04-08T05:55:04;93978.38;;;6.43;87.39
10079;BME280;5078;42.544;22.966;2023-04-08T05:57:31;93985.84;;;6.84;85.59
10079;BME280;5078;42.544;22.966;2023-04-08T05:59:59;93985.06;;;7.19;83.53
10079;BME280;5078;42.544;22.966;2023-04-08T06:02:26;93987.13;;;7.33;80.79
10079;BME280;5078;42.544;22.966;2023-04-08T06:04:53;93981.94;;;7.42;81.32
10079;BME280;5078;42.544;22.966;2023-04-08T06:07:19;93987.88;;;7.70;78.29
10079;BME280;5078;42.544;22.966;2023-04-08T06:09:46;93980.34;;;7.31;80.17
10079;BME280;5078;42.544;22.966;2023-04-08T06:12:13;93977.56;;;7.32;80.79
10079;BME280;5078;42.544;22.966;2023-04-08T06:14:39;93982.47;;;7.53;79.39
10079;BME280;5078;42.544;22.966;2023-04-08T06:17:08;93974.09;;;7.32;76.91
10079;BME280;5078;42.544;22.966;2023-04-08T06:19:34;93981.44;;;7.02;78.05
10079;BME280;5078;42.544;22.966;2023-04-08T06:22:01;93982.84;;;7.32;75.68
10079;BME280;5078;42.544;22.966;2023-04-08T06:24:28;93979.69;;;7.81;71.56
10079;BME280;5078;42.544;22.966;2023-04-08T06:26:55;93983.84;;;6.96;74.40
10079;BME280;5078;42.544;22.966;2023-04-08T06:29:22;93982.78;;;7.24;75.02
10079;BME280;5078;42.544;22.966;2023-04-08T06:31:48;93982.16;;;6.59;75.83
10079;BME280;5078;42.544;22.966;2023-04-08T06:34:17;93984.44;;;6.72;77.24
10079;BME280;5078;42.544;22.966;2023-04-08T06:36:43;93990.47;;;7.18;74.97
10079;BME280;5078;42.544;22.966;2023-04-08T06:39:10;93985.88;;;7.20;73.72
10079;BME280;5078;42.544;22.966;2023-04-08T06:41:37;93987.88;;;7.26;72.88
10079;BME280;5078;42.544;22.966;2023-04-08T06:44:04;93980.16;;;7.50;72.34
10079;BME280;5078;42.544;22.966;2023-04-08T06:46:30;93980.31;;;7.75;71.49
10079;BME280;5078;42.544;22.966;2023-04-08T06:48:57;93987.97;;;8.12;68.79
10079;BME280;5078;42.544;22.966;2023-04-08T06:51:25;93986.91;;;8.31;66.44
10079;BME280;5078;42.544;22.966;2023-04-08T06:53:52;93980.59;;;8.24;66.07
10079;BME280;5078;42.544;22.966;2023-04-08T06:56:19;93989.09;;;8.10;67.26
10079;BME280;5078;42.544;22.966;2023-04-08T06:58:47;93978.53;;;8.10;67.63
10079;BME280;5078;42.544;22.966;2023-04-08T07:01:14;93980.59;;;8.24;66.39
10079;BME280;5078;42.544;22.966;2023-04-08T07:03:41;93977.31;;;8.38;66.12
10079;BME280;5078;42.544;22.966;2023-04-08T07:06:08;93985.81;;;8.42;66.14
10079;BME280;5078;42.544;22.966;2023-04-08T07:08:36;93977.97;;;8.67;63.52
10079;BME280;5078;42.544;22.966;2023-04-08T07:11:03;93970.34;;;8.63;62.60
10079;BME280;5078;42.544;22.966;2023-04-08T07:13:30;93982.72;;;8.55;62.54
10079;BME280;5078;42.544;22.966;2023-04-08T07:15:57;93990.16;;;8.59;61.93
10079;BME280;5078;42.544;22.966;2023-04-08T07:18:23;93978.78;;;8.75;61.06
10079;BME280;5078;42.544;22.966;2023-04-08T07:20:51;93987.72;;;8.74;60.17
10079;BME280;5078;42.544;22.966;2023-04-08T07:23:19;93996.00;;;8.88;60.73
10079;BME280;5078;42.544;22.966;2023-04-08T07:25:47;93989.75;;;8.97;60.56
10079;BME280;5078;42.544;22.966;2023-04-08T07:28:14;93983.19;;;9.42;58.30
10079;BME280;5078;42.544;22.966;2023-04-08T07:30:40;93988.63;;;9.65;55.78
10079;BME280;5078;42.544;22.966;2023-04-08T07:33:07;93994.09;;;9.47;56.50
10079;BME280;5078;42.544;22.966;2023-04-08T07:35:34;93995.72;;;9.72;56.19
10079;BME280;5078;42.544;22.966;2023-04-08T07:38:01;93996.72;;;9.63;57.37
10079;BME280;5078;42.544;22.966;2023-04-08T07:40:27;93995.53;;;9.90;56.27
10079;BME280;5078;42.544;22.966;2023-04-08T07:42:55;94007.63;;;9.85;57.54
10079;BME280;5078;42.544;22.966;2023-04-08T07:45:22;93997.81;;;10.10;55.97
10079;BME280;5078;42.544;22.966;2023-04-08T07:47:49;93995.44;;;10.40;55.22
10079;BME280;5078;42.544;22.966;2023-04-08T07:50:16;94005.13;;;10.64;53.76
10079;BME280;5078;42.544;22.966;2023-04-08T07:52:43;94005.22;;;10.78;53.49
10079;BME280;5078;42.544;22.966;2023-04-08T07:55:09;94007.22;;;10.76;52.39
10079;BME280;5078;42.544;22.966;2023-04-08T07:57:36;93994.28;;;10.26;54.59
10079;BME280;5078;42.544;22.966;2023-04-08T08:00:05;94006.09;;;10.71;53.17
10079;BME280;5078;42.544;22.966;2023-04-08T08:02:33;94012.31;;;10.47;53.82
10079;BME280;5078;42.544;22.966;2023-04-08T08:05:00;94005.44;;;10.69;52.82
10079;BME280;5078;42.544;22.966;2023-04-08T08:07:27;93980.16;;;10.50;52.93
10079;BME280;5078;42.544;22.966;2023-04-08T08:09:54;94004.88;;;10.82;52.76
10079;BME280;5078;42.544;22.966;2023-04-08T08:12:21;94002.22;;;10.42;53.09
10079;BME280;5078;42.544;22.966;2023-04-08T08:14:48;94002.19;;;10.50;54.30
10079;BME280;5078;42.544;22.966;2023-04-08T08:17:16;94004.16;;;10.88;52.55
10079;BME280;5078;42.544;22.966;2023-04-08T08:19:43;93999.44;;;11.06;52.82
10079;BME280;5078;42.544;22.966;2023-04-08T08:22:10;94005.41;;;11.31;50.95
10079;BME280;5078;42.544;22.966;2023-04-08T08:24:37;94009.81;;;11.16;51.35
10079;BME280;5078;42.544;22.966;2023-04-08T08:27:04;93999.22;;;11.16;51.75
10079;BME280;5078;42.544;22.966;2023-04-08T08:29:31;93997.78;;;11.28;51.45
10079;BME280;5078;42.544;22.966;2023-04-08T08:31:57;94004.75;;;11.29;51.29
10079;BME280;5078;42.544;22.966;2023-04-08T08:34:25;94002.81;;;11.46;50.98
10079;BME280;5078;42.544;22.966;2023-04-08T08:36:52;93996.09;;;11.58;50.88
10079;BME280;5078;42.544;22.966;2023-04-08T08:39:19;93999.66;;;11.65;49.33
10079;BME280;5078;42.544;22.966;2023-04-08T08:41:46;94006.56;;;11.52;50.23
10079;BME280;5078;42.544;22.966;2023-04-08T08:44:13;93992.81;;;11.25;50.38
10079;BME280;5078;42.544;22.966;2023-04-08T08:46:42;93988.84;;;11.67;48.40
10079;BME280;5078;42.544;22.966;2023-04-08T08:49:10;93977.25;;;11.83;49.13
10079;BME280;5078;42.544;22.966;2023-04-08T08:51:39;93984.84;;;12.24;47.80
10079;BME280;5078;42.544;22.966;2023-04-08T08:54:06;93992.56;;;12.48;46.91
10079;BME280;5078;42.544;22.966;2023-04-08T08:56:33;93988.94;;;12.86;46.05
10079;BME280;5078;42.544;22.966;2023-04-08T08:59:00;93981.06;;;12.78;46.47
10079;BME280;5078;42.544;22.966;2023-04-08T09:01:34;93981.69;;;13.31;44.31
10079;BME280;5078;42.544;22.966;2023-04-08T09:04:12;93993.84;;;13.40;43.88
10079;BME280;5078;42.544;22.966;2023-04-08T09:06:42;93990.25;;;13.11;43.21
10079;BME280;5078;42.544;22.966;2023-04-08T09:09:09;93966.50;;;12.95;44.00
10079;BME280;5078;42.544;22.966;2023-04-08T09:11:37;93982.84;;;12.41;44.89
10079;BME280;5078;42.544;22.966;2023-04-08T09:14:05;93977.59;;;12.62;44.62
10079;BME280;5078;42.544;22.966;2023-04-08T09:16:32;93986.31;;;12.71;44.40
10079;BME280;5078;42.544;22.966;2023-04-08T09:19:09;93985.44;;;12.85;44.39
10079;BME280;5078;42.544;22.966;2023-04-08T09:21:36;93982.44;;;12.73;45.02
10079;BME280;5078;42.544;22.966;2023-04-08T09:24:04;93970.69;;;13.62;42.63
10079;BME280;5078;42.544;22.966;2023-04-08T09:26:31;93969.03;;;14.11;41.87
10079;BME280;5078;42.544;22.966;2023-04-08T09:29:00;93961.69;;;14.13;41.86
10079;BME280;5078;42.544;22.966;2023-04-08T09:31:28;93952.66;;;14.49;42.15
10079;BME280;5078;42.544;22.966;2023-04-08T09:33:57;93963.06;;;13.31;42.12
10079;BME280;5078;42.544;22.966;2023-04-08T09:36:24;93968.69;;;13.06;42.57
10079;BME280;5078;42.544;22.966;2023-04-08T09:38:52;93952.53;;;13.72;41.90
10079;BME280;5078;42.544;22.966;2023-04-08T09:41:22;93941.53;;;14.10;42.40
10079;BME280;5078;42.544;22.966;2023-04-08T09:43:50;93943.38;;;14.03;43.24
10079;BME280;5078;42.544;22.966;2023-04-08T09:46:20;93938.66;;;13.77;41.59
10079;BME280;5078;42.544;22.966;2023-04-08T09:48:57;93951.59;;;14.08;40.79
10079;BME280;5078;42.544;22.966;2023-04-08T09:51:28;93941.53;;;14.38;40.35
10079;BME280;5078;42.544;22.966;2023-04-08T09:54:00;93925.00;;;14.21;39.37
10079;BME280;5078;42.544;22.966;2023-04-08T09:56:34;93944.72;;;14.20;39.41
10079;BME280;5078;42.544;22.966;2023-04-08T09:59:10;93930.00;;;14.31;39.34
10079;BME280;5078;42.544;22.966;2023-04-08T10:01:44;93931.16;;;14.22;39.46
10079;BME280;5078;42.544;22.966;2023-04-08T10:04:13;93932.47;;;13.48;40.89
10079;BME280;5078;42.544;22.966;2023-04-08T10:06:43;93940.56;;;13.19;41.40
10079;BME280;5078;42.544;22.966;2023-04-08T10:09:11;93893.84;;;12.73;42.07
10079;BME280;5078;42.544;22.966;2023-04-08T10:11:39;93939.81;;;12.52;43.03
10079;BME280;5078;42.544;22.966;2023-04-08T10:14:08;93938.03;;;12.74;42.28
10079;BME280;5078;42.544;22.966;2023-04-08T10:16:35;93917.44;;;12.61;41.81
10079;BME280;5078;42.544;22.966;2023-04-08T10:19:35;93919.91;;;12.99;41.72
10079;BME280;5078;42.544;22.966;2023-04-08T10:22:02;93900.59;;;13.83;38.84
10079;BME280;5078;42.544;22.966;2023-04-08T10:24:29;93923.78;;;13.89;38.05
10079;BME280;5078;42.544;22.966;2023-04-08T10:26:57;93919.91;;;13.92;38.04
10079;BME280;5078;42.544;22.966;2023-04-08T10:29:33;93911.78;;;14.07;37.26
10079;BME280;5078;42.544;22.966;2023-04-08T10:32:00;93904.13;;;14.32;37.02
10079;BME280;5078;42.544;22.966;2023-04-08T10:34:27;93900.56;;;14.53;36.50
10079;BME280;5078;42.544;22.966;2023-04-08T10:36:55;93900.09;;;14.91;35.40
10079;BME280;5078;42.544;22.966;2023-04-08T10:39:24;93898.72;;;15.35;35.06
10079;BME280;5078;42.544;22.966;2023-04-08T10:41:53;93904.63;;;15.10;34.56
10079;BME280;5078;42.544;22.966;2023-04-08T10:44:23;93887.78;;;14.96;35.24
10079;BME280;5078;42.544;22.966;2023-04-08T10:46:51;93895.19;;;14.46;36.04
10079;BME280;5078;42.544;22.966;2023-04-08T10:49:19;93882.03;;;14.03;36.09
10079;BME280;5078;42.544;22.966;2023-04-08T10:51:47;93879.88;;;13.85;36.34
10079;BME280;5078;42.544;22.966;2023-04-08T10:54:14;93892.47;;;13.98;36.05
10079;BME280;5078;42.544;22.966;2023-04-08T10:56:46;93884.34;;;13.78;36.22
10079;BME280;5078;42.544;22.966;2023-04-08T10:59:14;93892.63;;;13.62;37.70
10079;BME280;5078;42.544;22.966;2023-04-08T11:01:45;93885.53;;;13.47;37.95
10079;BME280;5078;42.544;22.966;2023-04-08T11:04:13;93890.75;;;13.34;37.41
10079;BME280;5078;42.544;22.966;2023-04-08T11:06:45;93878.56;;;13.25;38.41
10079;BME280;5078;42.544;22.966;2023-04-08T11:09:13;93883.69;;;13.05;38.14
10079;BME280;5078;42.544;22.966;2023-04-08T11:11:42;93885.78;;;12.88;38.39
10079;BME280;5078;42.544;22.966;2023-04-08T11:14:09;93881.59;;;13.00;38.89
10079;BME280;5078;42.544;22.966;2023-04-08T11:16:36;93882.88;;;12.83;38.60
10079;BME280;5078;42.544;22.966;2023-04-08T11:19:05;93886.69;;;12.95;38.22
10079;BME280;5078;42.544;22.966;2023-04-08T11:21:34;93878.69;;;13.16;38.65
10079;BME280;5078;42.544;22.966;2023-04-08T11:24:05;93881.63;;;13.43;38.35
10079;BME280;5078;42.544;22.966;2023-04-08T11:26:32;93881.03;;;13.48;38.36
10079;BME280;5078;42.544;22.966;2023-04-08T11:28:59;93864.53;;;13.59;38.66
10079;BME280;5078;42.544;22.966;2023-04-08T11:31:26;93890.72;;;13.84;37.94
10079;BME280;5078;42.544;22.966;2023-04-08T11:33:54;93879.44;;;13.81;37.79
10079;BME280;5078;42.544;22.966;2023-04-08T11:36:22;93873.63;;;13.71;37.91
10079;BME280;5078;42.544;22.966;2023-04-08T11:38:53;93877.75;;;13.46;36.86
10079;BME280;5078;42.544;22.966;2023-04-08T11:41:19;93862.09;;;13.36;37.43
10079;BME280;5078;42.544;22.966;2023-04-08T11:43:55;93877.31;;;13.21;37.78
10079;BME280;5078;42.544;22.966;2023-04-08T11:46:23;93889.50;;;13.08;40.29
10079;BME280;5078;42.544;22.966;2023-04-08T11:48:59;93871.28;;;13.12;39.39
10079;BME280;5078;42.544;22.966;2023-04-08T11:51:28;93874.28;;;12.81;39.30
10079;BME280;5078;42.544;22.966;2023-04-08T11:53:55;93867.09;;;13.03;39.93
10079;BME280;5078;42.544;22.966;2023-04-08T11:56:23;93863.22;;;13.05;39.10
10079;BME280;5078;42.544;22.966;2023-04-08T11:58:50;93867.34;;;13.08;38.94
10079;BME280;5078;42.544;22.966;2023-04-08T12:01:17;93823.25;;;12.99;38.48
10079;BME280;5078;42.544;22.966;2023-04-08T12:03:58;93859.63;;;13.34;39.26
10079;BME280;5078;42.544;22.966;2023-04-08T12:06:25;93870.91;;;13.15;40.73
10079;BME280;5078;42.544;22.966;2023-04-08T12:08:55;93865.88;;;13.05;40.85
10079;BME280;5078;42.544;22.966;2023-04-08T12:11:22;93829.47;;;12.84;40.93
10079;BME280;5078;42.544;22.966;2023-04-08T12:13:49;93863.31;;;12.90;39.94
10079;BME280;5078;42.544;22.966;2023-04-08T12:16:17;93853.28;;;13.14;39.15
10079;BME280;5078;42.544;22.966;2023-04-08T12:18:44;93848.56;;;13.31;38.42
10079;BME280;5078;42.544;22.966;2023-04-08T12:21:11;93852.53;;;13.42;39.35
10079;BME280;5078;42.544;22.966;2023-04-08T12:23:37;93844.47;;;13.35;40.06
10079;BME280;5078;42.544;22.966;2023-04-08T12:26:06;93849.06;;;13.48;39.25
10079;BME280;5078;42.544;22.966;2023-04-08T12:28:33;93837.31;;;13.35;38.88
10079;BME280;5078;42.544;22.966;2023-04-08T12:31:00;93857.81;;;13.63;37.17
10079;BME280;5078;42.544;22.966;2023-04-08T12:33:27;93845.94;;;13.66;36.43
10079;BME280;5078;42.544;22.966;2023-04-08T12:35:54;93842.88;;;13.69;35.41
10079;BME280;5078;42.544;22.966;2023-04-08T12:38:22;93838.88;;;13.86;35.86
10079;BME280;5078;42.544;22.966;2023-04-08T12:40:49;93848.16;;;13.97;35.50
10079;BME280;5078;42.544;22.966;2023-04-08T12:43:17;93848.78;;;13.99;35.23
10079;BME280;5078;42.544;22.966;2023-04-08T12:45:45;93855.63;;;14.15;35.42
10079;BME280;5078;42.544;22.966;2023-04-08T12:48:12;93845.00;;;14.21;34.40
10079;BME280;5078;42.544;22.966;2023-04-08T12:50:39;93853.16;;;13.22;35.59
10079;BME280;5078;42.544;22.966;2023-04-08T12:53:05;93852.13;;;13.45;35.92
10079;BME280;5078;42.544;22.966;2023-04-08T12:55:32;93847.91;;;13.57;36.47
10079;BME280;5078;42.544;22.966;2023-04-08T12:57:59;93851.88;;;13.40;37.02
10079;BME280;5078;42.544;22.966;2023-04-08T13:00:27;93852.19;;;13.51;36.17
10079;BME280;5078;42.544;22.966;2023-04-08T13:02:54;93860.09;;;13.38;38.80
10079;BME280;5078;42.544;22.966;2023-04-08T13:05:21;93856.03;;;13.21;39.54